createdAt,value
2018-08-31T00:02:38.853Z,98447.64
2018-08-31T00:05:55.998Z,98447.44
2018-08-31T00:09:17.279Z,98447.44
2018-08-31T00:12:55.844Z,98450.60
2018-08-31T00:15:28.986Z,98441.11
2018-08-31T00:18:02.229Z,98439.86
2018-08-31T00:20:35.327Z,98435.23
2018-08-31T00:23:08.690Z,98429.66
2018-08-31T00:27:05.462Z,98425.37
2018-08-31T00:29:55.760Z,98421.48
2018-08-31T00:35:30.299Z,98421.66
2018-08-31T00:40:30.427Z,98421.00
2018-08-31T00:45:33.123Z,98425.63
2018-08-31T00:48:06.569Z,98419.25
2018-08-31T00:50:39.790Z,98416.80
2018-08-31T00:53:12.924Z,98418.34
2018-08-31T00:55:46.054Z,98421.00
2018-08-31T00:58:19.156Z,98420.45
2018-08-31T01:00:52.282Z,98424.45
2018-08-31T01:03:25.356Z,98414.72
2018-08-31T01:05:58.688Z,98416.92
2018-08-31T01:08:31.866Z,98415.63
2018-08-31T01:11:05.037Z,98413.38
2018-08-31T01:13:38.150Z,98419.04
2018-08-31T01:16:11.277Z,98419.58
2018-08-31T01:18:44.368Z,98412.38
2018-08-31T01:21:17.557Z,98418.59
2018-08-31T01:23:50.685Z,98412.62
2018-08-31T01:26:23.822Z,98409.09
2018-08-31T01:28:56.938Z,98409.38
2018-08-31T01:31:30.062Z,98405.92
2018-08-31T01:34:03.193Z,98406.67
2018-08-31T01:36:36.425Z,98405.05
2018-08-31T01:39:09.667Z,98405.59
2018-08-31T01:41:42.806Z,98408.09
2018-08-31T01:44:15.904Z,98412.59
2018-08-31T01:46:49.146Z,98414.03
2018-08-31T01:49:22.300Z,98421.37
2018-08-31T01:52:02.329Z,98421.00
2018-08-31T01:54:35.449Z,98414.78
2018-08-31T01:57:08.753Z,98414.63
2018-08-31T01:59:41.880Z,98409.67
2018-08-31T02:02:15.077Z,98414.55
2018-08-31T02:04:48.422Z,98409.80
2018-08-31T02:07:21.537Z,98417.95
2018-08-31T02:10:01.409Z,98409.63
2018-08-31T02:12:34.589Z,98407.05
2018-08-31T02:15:07.857Z,98403.97
2018-08-31T02:17:40.998Z,98398.22
2018-08-31T02:20:14.177Z,98397.52
2018-08-31T02:22:47.310Z,98399.22
2018-08-31T02:25:20.464Z,98396.23
2018-08-31T02:27:53.577Z,98382.58
2018-08-31T02:30:26.746Z,98381.81
2018-08-31T02:32:59.841Z,98371.00
2018-08-31T02:35:32.986Z,98374.73
2018-08-31T02:38:06.631Z,98364.65
2018-08-31T02:40:39.773Z,98360.06
2018-08-31T02:43:12.913Z,98356.19
2018-08-31T02:45:46.088Z,98356.00
2018-08-31T02:48:19.189Z,98350.97
2018-08-31T02:50:52.305Z,98352.53
2018-08-31T02:53:25.390Z,98350.76
2018-08-31T02:55:58.690Z,98352.66
2018-08-31T02:58:31.798Z,98344.99
2018-08-31T03:01:04.961Z,98342.97
2018-08-31T03:03:38.133Z,98337.87
2018-08-31T03:06:11.237Z,98334.88
2018-08-31T03:08:44.394Z,98333.13
2018-08-31T03:11:17.590Z,98335.50
2018-08-31T03:13:50.818Z,98331.92
2018-08-31T03:16:23.953Z,98339.46
2018-08-31T03:18:57.094Z,98335.46
2018-08-31T03:21:30.203Z,98337.63
2018-08-31T03:24:03.375Z,98323.05
2018-08-31T03:26:36.465Z,98327.52
2018-08-31T03:29:09.771Z,98324.80
2018-08-31T03:31:42.877Z,98325.67
2018-08-31T03:34:15.984Z,98327.24
2018-08-31T03:36:49.207Z,98330.23
2018-08-31T03:39:22.270Z,98334.01
2018-08-31T03:41:55.458Z,98334.14
2018-08-31T03:44:28.546Z,98342.56
2018-08-31T03:47:01.645Z,98347.38
2018-08-31T03:49:34.889Z,98351.06
2018-08-31T03:52:08.011Z,98350.90
2018-08-31T03:54:41.165Z,98347.20
2018-08-31T03:57:14.342Z,98347.98
2018-08-31T03:59:47.587Z,98344.20
2018-08-31T04:02:20.685Z,98341.63
2018-08-31T04:04:53.924Z,98343.66
2018-08-31T04:07:27.018Z,98346.59
2018-08-31T04:10:00.189Z,98348.41
2018-08-31T04:12:33.266Z,98349.22
2018-08-31T04:15:07.827Z,98355.11
2018-08-31T04:17:40.936Z,98359.73
2018-08-31T04:20:14.030Z,98356.00
2018-08-31T04:22:47.159Z,98353.96
2018-08-31T04:25:20.313Z,98356.54
2018-08-31T04:27:53.398Z,98355.11
2018-08-31T04:30:26.546Z,98346.08
2018-08-31T04:32:59.676Z,98338.61
2018-08-31T04:35:32.798Z,98331.20
2018-08-31T04:38:05.989Z,98339.90
2018-08-31T04:40:39.169Z,98329.19
2018-08-31T04:43:12.315Z,98338.48
2018-08-31T04:45:45.483Z,98340.39
2018-08-31T04:48:18.633Z,98340.30
2018-08-31T04:50:51.781Z,98341.58
2018-08-31T04:53:24.930Z,98346.74
2018-08-31T04:55:58.235Z,98337.77
2018-08-31T04:58:31.373Z,98340.63
2018-08-31T05:01:04.564Z,98332.56
2018-08-31T05:03:37.828Z,98339.28
2018-08-31T05:06:10.956Z,98345.27
2018-08-31T05:08:44.070Z,98340.78
2018-08-31T05:11:18.557Z,98341.73
2018-08-31T05:13:51.691Z,98344.98
2018-08-31T05:16:24.786Z,98346.06
2018-08-31T05:18:57.898Z,98339.57
2018-08-31T05:21:31.154Z,98333.45
2018-08-31T05:24:04.401Z,98336.25
2018-08-31T05:26:37.546Z,98337.53
2018-08-31T05:29:11.358Z,98338.88
2018-08-31T05:31:44.474Z,98336.42
2018-08-31T05:34:17.646Z,98335.14
2018-08-31T05:36:50.779Z,98333.45
2018-08-31T05:39:23.897Z,98333.17
2018-08-31T05:41:57.015Z,98325.31
2018-08-31T05:44:30.162Z,98335.48
2018-08-31T05:47:03.296Z,98330.78
2018-08-31T05:49:36.466Z,98337.56
2018-08-31T05:52:09.583Z,98331.79
2018-08-31T05:54:42.710Z,98328.80
2018-08-31T05:57:15.805Z,98324.34
2018-08-31T05:59:48.950Z,98324.34
2018-08-31T06:02:22.151Z,98324.20
2018-08-31T06:04:55.331Z,98329.63
2018-08-31T06:07:28.513Z,98332.13
2018-08-31T06:10:01.680Z,98330.30
2018-08-31T06:12:34.867Z,98332.13
2018-08-31T06:15:08.042Z,98336.28
2018-08-31T06:17:41.177Z,98338.27
2018-08-31T06:20:14.282Z,98337.39
2018-08-31T06:22:47.501Z,98338.39
2018-08-31T06:25:20.656Z,98344.27
2018-08-31T06:27:53.889Z,98339.81
2018-08-31T06:30:27.052Z,98346.18
2018-08-31T06:33:00.386Z,98342.27
2018-08-31T06:35:33.540Z,98338.86
2018-08-31T06:38:06.702Z,98335.94
2018-08-31T06:40:39.843Z,98342.41
2018-08-31T06:43:13.016Z,98340.16
2018-08-31T06:45:46.165Z,98339.57
2018-08-31T06:48:19.319Z,98339.23
2018-08-31T06:50:52.478Z,98343.17
2018-08-31T06:53:25.609Z,98347.44
2018-08-31T06:55:58.907Z,98343.44
2018-08-31T06:58:32.015Z,98342.48
2018-08-31T07:01:05.479Z,98341.32
2018-08-31T07:03:38.654Z,98347.44
2018-08-31T07:06:11.786Z,98344.59
2018-08-31T07:08:44.913Z,98350.56
2018-08-31T07:11:18.437Z,98355.44
2018-08-31T07:13:51.610Z,98356.52
2018-08-31T07:16:24.725Z,98365.38
2018-08-31T07:18:57.916Z,98353.60
2018-08-31T07:21:31.145Z,98366.62
2018-08-31T07:24:04.301Z,98361.73
2018-08-31T07:26:37.443Z,98362.39
2018-08-31T07:29:10.593Z,98368.59
2018-08-31T07:31:43.738Z,98368.92
2018-08-31T07:34:16.879Z,98370.30
2018-08-31T07:36:50.044Z,98374.67
2018-08-31T07:39:23.217Z,98382.41
2018-08-31T07:41:56.456Z,98387.78
2018-08-31T07:44:29.580Z,98393.08
2018-08-31T07:47:02.729Z,98392.37
2018-08-31T07:49:35.907Z,98388.44
2018-08-31T07:52:09.029Z,98390.28
2018-08-31T07:54:42.162Z,98387.90
2018-08-31T07:57:15.360Z,98386.38
2018-08-31T07:59:48.521Z,98383.67
2018-08-31T08:02:21.653Z,98382.20
2018-08-31T08:04:54.847Z,98377.74
2018-08-31T08:07:28.015Z,98368.73
2018-08-31T08:10:01.196Z,98359.64
2018-08-31T08:12:34.369Z,98348.38
2018-08-31T08:15:07.565Z,98344.77
2018-08-31T08:17:40.681Z,98347.11
2018-08-31T08:20:13.851Z,98358.58
2018-08-31T08:22:47.254Z,98359.39
2018-08-31T08:25:20.437Z,98370.27
2018-08-31T08:27:53.595Z,98369.07
2018-08-31T08:30:26.742Z,98366.09
2018-08-31T08:32:59.921Z,98366.37
2018-08-31T08:35:33.134Z,98370.19
2018-08-31T08:38:06.338Z,98372.64
2018-08-31T08:40:39.491Z,98377.80
2018-08-31T08:43:12.656Z,98383.18
2018-08-31T08:45:45.845Z,98384.01
2018-08-31T08:48:19.044Z,98389.62
2018-08-31T08:50:52.198Z,98379.95
2018-08-31T08:53:25.392Z,98386.34
2018-08-31T08:55:58.685Z,98389.56
2018-08-31T08:58:31.831Z,98389.23
2018-08-31T09:01:05.145Z,98393.15
2018-08-31T09:03:38.316Z,98392.13
2018-08-31T09:06:11.505Z,98393.11
2018-08-31T09:08:44.621Z,98395.14
2018-08-31T09:11:17.822Z,98397.71
2018-08-31T09:13:50.996Z,98394.50
2018-08-31T09:16:24.178Z,98394.03
2018-08-31T09:18:57.348Z,98393.21
2018-08-31T09:21:30.525Z,98397.48
2018-08-31T09:24:03.713Z,98397.71
2018-08-31T09:26:36.903Z,98389.39
2018-08-31T09:29:10.128Z,98399.70
2018-08-31T09:31:43.310Z,98399.70
2018-08-31T09:34:16.473Z,98399.97
2018-08-31T09:36:49.585Z,98400.89
2018-08-31T09:39:22.901Z,98392.84
2018-08-31T09:41:56.025Z,98400.02
2018-08-31T09:44:29.213Z,98394.52
2018-08-31T09:47:02.358Z,98399.13
2018-08-31T09:49:35.506Z,98395.20
2018-08-31T09:52:08.595Z,98393.93
2018-08-31T09:54:41.808Z,98394.99
2018-08-31T09:57:15.065Z,98392.76
2018-08-31T09:59:48.186Z,98389.35
2018-08-31T10:02:24.195Z,98405.87
2018-08-31T10:04:58.020Z,98395.01
2018-08-31T10:07:31.154Z,98402.18
2018-08-31T10:10:04.405Z,98403.14
2018-08-31T10:12:37.636Z,98399.27
2018-08-31T10:15:10.858Z,98403.99
2018-08-31T10:17:47.079Z,98403.20
2018-08-31T10:20:20.254Z,98403.99
2018-08-31T10:22:53.442Z,98396.75
2018-08-31T10:25:26.606Z,98399.13
2018-08-31T10:27:59.770Z,98403.25
2018-08-31T10:30:33.007Z,98405.96
2018-08-31T10:33:06.429Z,98413.70
2018-08-31T10:35:39.658Z,98409.70
2018-08-31T10:38:12.824Z,98401.34
2018-08-31T10:40:46.079Z,98403.25
2018-08-31T10:43:19.319Z,98407.79
2018-08-31T10:45:52.578Z,98410.63
2018-08-31T10:48:25.778Z,98410.86
2018-08-31T10:50:58.970Z,98410.37
2018-08-31T10:53:32.108Z,98399.72
2018-08-31T10:56:05.335Z,98400.41
2018-08-31T10:58:38.503Z,98407.05
2018-08-31T11:01:11.710Z,98406.04
2018-08-31T11:03:44.996Z,98406.37
2018-08-31T11:06:18.238Z,98403.99
2018-08-31T11:08:51.435Z,98409.39
2018-08-31T11:11:24.679Z,98417.72
2018-08-31T11:13:57.825Z,98415.47
2018-08-31T11:16:31.023Z,98417.13
2018-08-31T11:19:04.158Z,98414.19
2018-08-31T11:21:37.333Z,98410.31
2018-08-31T11:24:10.585Z,98411.60
2018-08-31T11:26:43.810Z,98413.65
2018-08-31T11:29:16.995Z,98416.48
2018-08-31T11:31:50.185Z,98420.44
2018-08-31T11:34:23.337Z,98424.69
2018-08-31T11:36:56.491Z,98418.37
2018-08-31T11:39:29.715Z,98422.91
2018-08-31T11:42:02.965Z,98421.57
2018-08-31T11:44:36.103Z,98425.44
2018-08-31T11:47:09.243Z,98425.83
2018-08-31T11:49:42.393Z,98422.29
2018-08-31T11:52:15.652Z,98422.45
2018-08-31T11:54:48.820Z,98418.12
2018-08-31T11:57:21.986Z,98422.99
2018-08-31T11:59:55.211Z,98420.74
2018-08-31T12:02:28.387Z,98425.23
2018-08-31T12:05:01.646Z,98429.86
2018-08-31T12:07:34.860Z,98429.31
2018-08-31T12:10:08.136Z,98428.32
2018-08-31T12:12:41.344Z,98429.06
2018-08-31T12:15:14.558Z,98420.25
2018-08-31T12:17:47.764Z,98425.83
2018-08-31T12:20:20.966Z,98424.30
2018-08-31T12:22:54.153Z,98428.67
2018-08-31T12:25:27.335Z,98429.77
2018-08-31T12:28:00.509Z,98431.45
2018-08-31T12:30:33.655Z,98430.62
2018-08-31T12:33:06.901Z,98430.44
2018-08-31T12:35:40.222Z,98426.81
2018-08-31T12:38:13.476Z,98424.05
2018-08-31T12:44:02.108Z,98430.37
2018-08-31T12:46:35.325Z,98431.65
2018-08-31T12:49:08.482Z,98429.66
2018-08-31T12:51:41.741Z,98426.36
2018-08-31T12:54:15.158Z,98414.55
2018-08-31T12:56:48.338Z,98411.97
2018-08-31T12:59:21.538Z,98412.23
2018-08-31T13:01:54.745Z,98412.02
2018-08-31T13:04:27.966Z,98416.37
2018-08-31T13:07:01.239Z,98414.88
2018-08-31T13:09:34.327Z,98415.91
2018-08-31T13:12:07.531Z,98408.70
2018-08-31T13:14:40.821Z,98409.85
2018-08-31T13:17:14.004Z,98413.26
2018-08-31T13:19:47.228Z,98416.70
2018-08-31T13:22:20.390Z,98411.20
2018-08-31T13:24:53.594Z,98414.56
2018-08-31T13:27:27.023Z,98408.43
2018-08-31T13:30:00.231Z,98405.09
2018-08-31T13:32:33.360Z,98407.81
2018-08-31T13:35:06.655Z,98405.10
2018-08-31T13:37:39.877Z,98408.43
2018-08-31T13:40:13.062Z,98408.84
2018-08-31T13:42:46.270Z,98406.31
2018-08-31T13:45:19.494Z,98410.42
2018-08-31T13:47:52.684Z,98410.55
2018-08-31T13:50:25.887Z,98396.61
2018-08-31T13:52:59.062Z,98397.78
2018-08-31T13:55:32.328Z,98401.84
2018-08-31T13:58:05.615Z,98402.52
2018-08-31T14:00:38.852Z,98401.58
2018-08-31T14:03:12.034Z,98393.47
2018-08-31T14:05:45.216Z,98391.52
2018-08-31T14:08:18.404Z,98387.89
2018-08-31T14:10:51.628Z,98394.30
2018-08-31T14:13:24.824Z,98390.64
2018-08-31T14:15:58.018Z,98393.14
2018-08-31T14:18:31.228Z,98396.80
2018-08-31T14:21:11.274Z,98391.02
2018-08-31T14:23:44.358Z,98394.42
2018-08-31T14:26:18.420Z,98393.27
2018-08-31T14:28:51.634Z,98398.04
2018-08-31T14:31:24.773Z,98392.67
2018-08-31T14:33:57.921Z,98392.25
2018-08-31T14:36:31.088Z,98397.55
2018-08-31T14:39:06.861Z,98391.88
2018-08-31T14:41:40.072Z,98394.45
2018-08-31T14:44:13.328Z,98389.97
2018-08-31T14:46:46.570Z,98390.04
2018-08-31T14:49:19.860Z,98394.09
2018-08-31T14:51:53.013Z,98396.82
2018-08-31T14:54:26.190Z,98400.34
2018-08-31T14:56:59.444Z,98397.52
2018-08-31T14:59:32.787Z,98396.83
2018-08-31T15:02:05.993Z,98399.27
2018-08-31T15:04:39.255Z,98398.38
2018-08-31T15:07:12.435Z,98403.41
2018-08-31T15:09:45.599Z,98403.77
2018-08-31T15:12:18.804Z,98400.09
2018-08-31T15:14:51.993Z,98408.10
2018-08-31T15:17:25.222Z,98401.57
2018-08-31T15:19:58.377Z,98409.52
2018-08-31T15:22:31.625Z,98407.41
2018-08-31T15:25:05.200Z,98409.24
2018-08-31T15:27:38.452Z,98417.06
2018-08-31T15:30:11.671Z,98419.82
2018-08-31T15:32:44.853Z,98418.28
2018-08-31T15:35:18.055Z,98413.00
2018-08-31T15:37:51.254Z,98417.20
2018-08-31T15:40:24.470Z,98412.03
2018-08-31T15:42:57.671Z,98409.92
2018-08-31T15:45:31.000Z,98405.25
2018-08-31T15:48:04.265Z,98403.73
2018-08-31T15:50:37.510Z,98398.03
2018-08-31T15:53:10.930Z,98397.56
2018-08-31T15:55:44.177Z,98393.16
2018-08-31T15:58:17.380Z,98391.05
2018-08-31T16:00:50.658Z,98396.05
2018-08-31T16:03:23.798Z,98393.14
2018-08-31T16:05:57.027Z,98398.42
2018-08-31T16:08:30.959Z,98398.17
2018-08-31T16:11:04.181Z,98396.12
2018-08-31T16:13:37.328Z,98398.42
2018-08-31T16:16:11.430Z,98401.83
2018-08-31T16:18:44.738Z,98403.05
2018-08-31T16:21:18.079Z,98400.80
2018-08-31T16:23:51.206Z,98403.24
2018-08-31T16:26:24.413Z,98402.38
2018-08-31T16:28:57.678Z,98410.73
2018-08-31T16:31:30.866Z,98406.86
2018-08-31T16:34:04.037Z,98406.73
2018-08-31T16:36:37.369Z,98408.48
2018-08-31T16:39:10.534Z,98409.45
2018-08-31T16:41:43.785Z,98406.73
2018-08-31T16:44:16.947Z,98405.91
2018-08-31T16:46:50.159Z,98410.11
2018-08-31T16:49:23.399Z,98403.20
2018-08-31T16:51:56.694Z,98405.03
2018-08-31T16:54:30.134Z,98408.08
2018-08-31T16:57:03.413Z,98416.43
2018-08-31T16:59:36.617Z,98418.47
2018-08-31T17:02:09.784Z,98425.00
2018-08-31T17:04:43.013Z,98423.84
2018-08-31T17:07:16.208Z,98417.93
2018-08-31T17:09:49.376Z,98413.19
2018-08-31T17:12:22.534Z,98409.70
2018-08-31T17:14:55.757Z,98418.34
2018-08-31T17:17:28.925Z,98415.60
2018-08-31T17:20:02.173Z,98425.13
2018-08-31T17:22:35.509Z,98430.29
2018-08-31T17:25:08.958Z,98428.12
2018-08-31T17:27:47.906Z,98434.29
2018-08-31T17:30:22.250Z,98431.70
2018-08-31T17:33:01.119Z,98436.89
2018-08-31T17:35:39.948Z,98436.67
2018-08-31T17:38:13.145Z,98431.84
2018-08-31T17:40:46.422Z,98434.62
2018-08-31T17:43:19.646Z,98431.80
2018-08-31T17:45:52.905Z,98431.71
2018-08-31T17:48:26.099Z,98437.83
2018-08-31T17:50:59.371Z,98442.16
2018-08-31T17:53:32.573Z,98452.98
2018-08-31T17:56:05.888Z,98455.88
2018-08-31T17:58:39.054Z,98460.69
2018-08-31T18:01:12.268Z,98462.13
2018-08-31T18:03:45.539Z,98461.58
2018-08-31T18:06:18.828Z,98459.73
2018-08-31T18:08:52.012Z,98461.11
2018-08-31T18:11:32.090Z,98471.28
2018-08-31T18:14:06.241Z,98471.15
2018-08-31T18:16:39.600Z,98472.77
2018-08-31T18:19:12.693Z,98470.33
2018-08-31T18:21:45.916Z,98468.48
2018-08-31T18:24:19.160Z,98470.19
2018-08-31T18:26:52.409Z,98472.27
2018-08-31T18:29:25.664Z,98478.76
2018-08-31T18:31:58.903Z,98482.63
2018-08-31T18:34:32.120Z,98478.89
2018-08-31T18:37:05.400Z,98481.73
2018-08-31T18:39:38.613Z,98487.89
2018-08-31T18:42:11.914Z,98501.39
2018-08-31T18:44:45.116Z,98504.38
2018-08-31T18:47:18.362Z,98502.20
2018-08-31T18:49:51.613Z,98512.91
2018-08-31T18:52:25.986Z,98518.89
2018-08-31T18:54:59.221Z,98517.37
2018-08-31T18:57:32.450Z,98519.16
2018-08-31T19:00:05.746Z,98519.48
2018-08-31T19:02:38.941Z,98520.77
2018-08-31T19:05:12.533Z,98519.42
2018-08-31T19:07:45.751Z,98528.65
2018-08-31T19:10:18.979Z,98528.02
2018-08-31T19:12:52.297Z,98533.63
2018-08-31T19:15:25.474Z,98530.81
2018-08-31T19:17:58.744Z,98539.09
2018-08-31T19:20:31.995Z,98544.39
2018-08-31T19:23:05.375Z,98540.94
2018-08-31T19:25:38.659Z,98534.45
2018-08-31T19:28:11.944Z,98538.16
2018-08-31T19:30:45.155Z,98545.06
2018-08-31T19:33:18.520Z,98543.36
2018-08-31T19:35:51.789Z,98545.37
2018-08-31T19:38:25.119Z,98549.73
2018-08-31T19:40:58.752Z,98544.23
2018-08-31T19:43:32.099Z,98545.21
2018-08-31T19:46:05.564Z,98548.04
2018-08-31T19:48:38.928Z,98557.11
2018-08-31T19:51:12.198Z,98547.95
2018-08-31T19:53:45.577Z,98549.58
2018-08-31T19:56:18.807Z,98550.86
2018-08-31T19:58:52.106Z,98554.88
2018-08-31T20:01:25.427Z,98560.66
2018-08-31T20:03:58.747Z,98561.95
2018-08-31T20:06:32.087Z,98561.32
2018-08-31T20:09:07.922Z,98571.92
2018-08-31T20:11:41.167Z,98570.17
2018-08-31T20:14:14.407Z,98574.19
2018-08-31T20:16:47.643Z,98576.34
2018-08-31T20:19:20.943Z,98576.76
2018-08-31T20:21:54.729Z,98571.92
2018-08-31T20:24:28.005Z,98570.73
2018-08-31T20:27:01.264Z,98574.19
2018-08-31T20:29:34.543Z,98570.33
2018-08-31T20:32:07.804Z,98566.05
2018-08-31T20:34:41.241Z,98569.51
2018-08-31T20:37:14.525Z,98562.61
2018-08-31T20:39:47.768Z,98567.34
2018-08-31T20:42:21.001Z,98565.49
2018-08-31T20:44:54.254Z,98558.39
2018-08-31T20:47:27.503Z,98568.22
2018-08-31T20:50:00.697Z,98562.45
2018-08-31T20:52:33.910Z,98565.02
2018-08-31T20:55:07.164Z,98570.55
2018-08-31T20:57:40.390Z,98574.03
2018-08-31T21:00:13.624Z,98572.39
2018-08-31T21:02:46.823Z,98565.80
2018-08-31T21:05:20.139Z,98572.08
2018-08-31T21:07:53.359Z,98567.75
2018-08-31T21:10:26.590Z,98569.51
2018-08-31T21:12:59.805Z,98570.55
2018-08-31T21:15:33.065Z,98564.92
2018-08-31T21:18:06.379Z,98571.92
2018-08-31T21:20:39.603Z,98569.25
2018-08-31T21:23:12.858Z,98572.58
2018-08-31T21:25:46.056Z,98567.09
2018-08-31T21:28:19.260Z,98568.78
2018-08-31T21:30:52.504Z,98565.48
2018-08-31T21:33:25.705Z,98570.55
2018-08-31T21:35:58.868Z,98564.92
2018-08-31T21:38:32.159Z,98571.36
2018-08-31T21:41:05.356Z,98575.31
2018-08-31T21:43:38.563Z,98576.25
2018-08-31T21:46:11.813Z,98582.06
2018-08-31T21:48:45.001Z,98579.23
2018-08-31T21:51:18.265Z,98581.41
2018-08-31T21:53:51.497Z,98579.08
2018-08-31T21:56:24.705Z,98573.84
2018-08-31T21:58:57.918Z,98575.37
2018-08-31T22:01:36.801Z,98574.18
2018-08-31T22:04:11.260Z,98572.89
2018-08-31T22:06:44.529Z,98571.29
2018-08-31T22:09:17.737Z,98575.46
2018-08-31T22:11:50.929Z,98573.71
2018-08-31T22:14:24.178Z,98580.30
2018-08-31T22:16:57.338Z,98576.97
2018-08-31T22:19:30.553Z,98571.45
2018-08-31T22:22:03.692Z,98566.21
2018-08-31T22:24:36.857Z,98553.75
2018-08-31T22:27:10.038Z,98554.32
2018-08-31T22:29:43.224Z,98560.03
2018-08-31T22:32:16.346Z,98566.30
2018-08-31T22:34:49.574Z,98565.80
2018-08-31T22:37:22.738Z,98566.63
2018-08-31T22:39:55.896Z,98561.95
2018-08-31T22:42:29.129Z,98564.45
2018-08-31T22:45:02.297Z,98573.30
2018-08-31T22:47:35.459Z,98567.97
2018-08-31T22:50:08.835Z,98569.98
2018-08-31T22:52:42.280Z,98569.35
2018-08-31T22:55:15.543Z,98569.76
2018-08-31T22:57:48.747Z,98570.17
2018-08-31T23:00:22.013Z,98565.39
2018-08-31T23:02:56.116Z,98558.74
2018-08-31T23:05:29.381Z,98558.08
2018-08-31T23:08:02.739Z,98559.38
2018-08-31T23:10:35.948Z,98551.34
2018-08-31T23:13:09.081Z,98547.79
2018-08-31T23:15:42.220Z,98550.20
2018-08-31T23:18:15.357Z,98547.48
2018-08-31T23:20:48.568Z,98550.45
2018-08-31T23:23:54.645Z,98551.66
2018-08-31T23:26:27.807Z,98555.10
2018-08-31T23:29:00.927Z,98543.15
2018-08-31T23:31:34.082Z,98536.21
2018-08-31T23:34:07.206Z,98544.28
2018-08-31T23:36:40.379Z,98546.03
2018-08-31T23:39:13.526Z,98552.16
2018-08-31T23:41:46.731Z,98552.06
2018-08-31T23:44:19.920Z,98551.09
2018-08-31T23:46:53.079Z,98554.57
2018-08-31T23:49:26.220Z,98560.09
2018-08-31T23:51:59.341Z,98554.88
2018-08-31T23:54:32.532Z,98560.91
2018-08-31T23:57:05.688Z,98559.47
2018-08-31T23:59:38.891Z,98559.15
